False Pass, AK

6:30 AM AKDT on August 04, 2015 (GMT -0800)
False Pass | | Change Station
CLOSE
Current Station
Airport
Location: False Pass,
Elevation: 20 ft
Nearby Weather Stations

Elev 20 ft 54.85 °N, 163.41 °W | Updated 29 minutes ago

Mostly Cloudy
Mostly Cloudy
61 °F
Feels Like 61 °F
N
17
Wind Variable Wind from WNW
Gusts 28 mph

Today
High -- | Low -- °F
--% Chance of Precip.
Yesterday
High -- | Low -- °F
Precip. -- in
7:08 AM 10:49 PM
Waning Gibbous, 77% visible
Pressure 30.13 in
Visibility 10.0 miles
Clouds Mostly Cloudy 7000 ft
Mostly Cloudy 8000 ft
Dew Point 51 °F
Humidity 70%
Rainfall 0.01 in
Snow Depth Not available.
UV 0 out of 12
Pollen Not available.
Air Quality Not available.
Flu Activity Not available.
METAR PAKF 041401Z AUTO 30015G24KT 10SM BKN070 BKN080 16/11 A2986 RMK AO2 PK WND 29028/1351 SLP203 P0001 T01610106 $

More Conditions Fewer Conditions

Pressure 30.13 in
Visibility 10.0 miles
Clouds Mostly Cloudy 7000 ft
Mostly Cloudy 8000 ft
Dew Point 51 °F
Humidity 70%
Rainfall 0.01 in
Snow Depth Not available.
UV 0 out of 12
Pollen Not available.
Air Quality Not available.
Flu Activity Not available.
METAR PAKF 041401Z AUTO 30015G24KT 10SM BKN070 BKN080 16/11 A2986 RMK AO2 PK WND 29028/1351 SLP203 P0001 T01610106 $

More Conditions Fewer Conditions

10-Day Weather Forecast

×

Almanac

Astronomy

Aug. 04, 2015 Rise Set
Actual Time
Civil Twilight
Nautical Twilight
Astronomical Twilight
Moon
Length of Visible Light
Length of Day
Tomorrow will be .
, % of the Moon is Illuminated

Today's Extremes

State Highs State Lows

Community

WunderPhotos

Upload Photos

1,843,921 photos uploaded!

WunderBlogs® & News

Nearby

Air Quality

  Air Quality AQ Index Pollutant
Not available.

Snow Depth

Station Depth Elevation

Earthquake Activity

City Distance Mag. Time & Date
Minimum magnitude displayed is 2.5.

Coastal Water Temperatures

Place Temperature

Stations

Nearby Weather Stations

Station Location Temp. Windchill Dew Point Humidity Wind Precip. Elev Updated Type